createdAt,value
2018-03-11T00:00:22.217Z,22.40
2018-03-11T00:02:51.099Z,22.93
2018-03-11T00:05:19.230Z,20.70
2018-03-11T00:07:47.361Z,25.30
2018-03-11T00:10:16.266Z,22.33
2018-03-11T00:12:44.388Z,24.03
2018-03-11T00:15:12.541Z,23.93
2018-03-11T00:17:40.673Z,20.07
2018-03-11T00:20:08.829Z,27.80
2018-03-11T00:22:37.785Z,22.67
2018-03-11T00:25:06.837Z,24.00
2018-03-11T00:27:34.997Z,22.80
2018-03-11T00:30:03.127Z,25.80
2018-03-11T00:32:31.271Z,26.10
2018-03-11T00:34:59.401Z,25.73
2018-03-11T00:37:28.292Z,25.37
2018-03-11T00:39:57.187Z,24.83
2018-03-11T00:42:26.093Z,25.23
2018-03-11T00:44:54.213Z,23.73
2018-03-11T00:47:22.356Z,25.47
2018-03-11T00:49:50.474Z,30.57
2018-03-11T00:52:19.370Z,25.40
2018-03-11T00:54:48.250Z,27.40
2018-03-11T00:57:17.160Z,23.77
2018-03-11T00:59:45.281Z,26.53
2018-03-11T01:02:13.405Z,27.30
2018-03-11T01:04:42.312Z,23.13
2018-03-11T01:07:10.438Z,24.17
2018-03-11T01:09:38.568Z,25.60
2018-03-11T01:12:06.684Z,22.27
2018-03-11T01:14:34.813Z,27.63
2018-03-11T01:17:02.946Z,22.87
2018-03-11T01:19:31.872Z,24.97
2018-03-11T01:22:00.388Z,22.50
2018-03-11T01:24:28.566Z,22.33
2018-03-11T01:26:56.644Z,22.10
2018-03-11T01:29:24.778Z,24.00
2018-03-11T01:31:52.908Z,21.00
2018-03-11T01:34:21.824Z,28.10
2018-03-11T01:36:49.946Z,22.63
2018-03-11T01:39:18.837Z,28.50
2018-03-11T01:41:46.976Z,26.97
2018-03-11T01:44:15.860Z,26.80
2018-03-11T01:46:44.773Z,29.57
2018-03-11T01:49:12.898Z,30.80
2018-03-11T01:51:41.036Z,27.17
2018-03-11T01:54:09.165Z,26.00
2018-03-11T01:56:37.300Z,28.10
2018-03-11T01:59:05.425Z,22.20
2018-03-11T02:04:16.013Z,27.77
2018-03-11T02:06:44.161Z,25.93
2018-03-11T02:09:12.297Z,23.20
2018-03-11T02:11:40.565Z,26.50
2018-03-11T02:14:08.700Z,22.27
2018-03-11T02:16:37.016Z,31.83
2018-03-11T02:19:05.132Z,27.40
2018-03-11T02:21:33.267Z,29.57
2018-03-11T02:24:01.401Z,28.57
2018-03-11T02:26:30.297Z,28.60
2018-03-11T02:28:59.184Z,20.80
2018-03-11T02:31:28.072Z,27.50
2018-03-11T02:33:56.979Z,27.70
2018-03-11T02:36:25.107Z,25.00
2018-03-11T02:38:53.247Z,22.10
2018-03-11T02:41:21.360Z,29.40
2018-03-11T02:43:49.495Z,30.80
2018-03-11T02:46:17.632Z,31.17
2018-03-11T02:48:46.529Z,29.10
2018-03-11T02:51:14.879Z,31.03
2018-03-11T02:53:43.017Z,31.03
2018-03-11T02:56:11.148Z,30.17
2018-03-11T02:58:39.284Z,26.53
2018-03-11T03:01:07.407Z,26.00
2018-03-11T03:03:35.537Z,28.57
2018-03-11T03:06:04.420Z,29.50
2018-03-11T03:08:32.571Z,24.40
2018-03-11T03:11:00.714Z,31.07
2018-03-11T03:13:28.831Z,26.07
2018-03-11T03:15:56.962Z,28.67
2018-03-11T03:18:25.086Z,30.90
2018-03-11T03:20:53.989Z,28.07
2018-03-11T03:23:22.885Z,27.60
2018-03-11T03:25:51.029Z,26.87
2018-03-11T03:28:19.158Z,28.37
2018-03-11T03:30:47.320Z,25.00
2018-03-11T03:33:16.203Z,23.07
2018-03-11T03:35:44.337Z,26.50
2018-03-11T03:38:13.223Z,26.50
2018-03-11T03:40:42.131Z,27.50
2018-03-11T03:43:10.249Z,27.77
2018-03-11T03:45:39.578Z,24.13
2018-03-11T03:48:08.460Z,23.63
2018-03-11T03:50:36.592Z,23.50
2018-03-11T03:53:04.714Z,20.00
2018-03-11T03:55:32.888Z,24.30
2018-03-11T03:58:00.989Z,28.80
2018-03-11T04:00:29.158Z,20.90
2018-03-11T04:02:57.284Z,21.43
2018-03-11T04:05:25.409Z,23.57
2018-03-11T04:07:53.675Z,27.97
2018-03-11T04:10:21.794Z,24.97
2018-03-11T04:12:50.025Z,22.50
2018-03-11T04:15:18.176Z,26.10
2018-03-11T04:17:47.082Z,23.47
2018-03-11T04:20:15.206Z,22.17
2018-03-11T04:22:43.348Z,28.37
2018-03-11T04:25:11.513Z,30.77
2018-03-11T04:27:39.660Z,33.93
2018-03-11T04:30:07.799Z,33.77
2018-03-11T04:32:35.946Z,32.97
2018-03-11T04:35:04.085Z,32.20
2018-03-11T04:37:32.231Z,35.63
2018-03-11T04:40:00.356Z,36.10
2018-03-11T04:42:28.488Z,36.83
2018-03-11T04:44:57.397Z,38.20
2018-03-11T04:47:26.306Z,32.07
2018-03-11T04:49:54.429Z,40.07
2018-03-11T04:52:22.577Z,40.30
2018-03-11T04:54:50.740Z,39.07
2018-03-11T04:57:18.881Z,39.80
2018-03-11T04:59:47.032Z,30.23
2018-03-11T05:02:15.940Z,37.93
2018-03-11T05:04:44.081Z,37.90
2018-03-11T05:07:12.197Z,37.83
2018-03-11T05:09:40.345Z,38.60
2018-03-11T05:12:08.480Z,39.93
2018-03-11T05:14:36.622Z,42.50
2018-03-11T05:17:04.739Z,35.40
2018-03-11T05:19:34.194Z,24.63
2018-03-11T05:22:02.321Z,34.10
2018-03-11T05:24:31.221Z,36.20
2018-03-11T05:27:00.224Z,38.70
2018-03-11T05:29:28.380Z,40.80
2018-03-11T05:31:57.393Z,43.13
2018-03-11T05:34:25.543Z,43.90
2018-03-11T05:36:54.434Z,45.00
2018-03-11T05:39:23.336Z,38.27
2018-03-11T05:41:51.565Z,42.93
2018-03-11T05:44:19.709Z,35.47
2018-03-11T05:46:47.836Z,39.33
2018-03-11T05:49:16.730Z,40.30
2018-03-11T05:51:45.624Z,35.73
2018-03-11T05:54:13.748Z,38.07
2018-03-11T05:56:41.881Z,38.50
2018-03-11T05:59:10.005Z,40.63
2018-03-11T06:01:38.137Z,40.03
2018-03-11T06:04:06.253Z,38.40
2018-03-11T06:06:34.394Z,38.57
2018-03-11T06:09:02.516Z,42.10
2018-03-11T06:11:31.425Z,41.50
2018-03-11T06:13:59.548Z,38.80
2018-03-11T06:16:29.210Z,41.93
2018-03-11T06:18:57.341Z,40.93
2018-03-11T06:21:26.249Z,39.40
2018-03-11T06:23:54.366Z,40.10
2018-03-11T06:26:22.505Z,38.37
2018-03-11T06:28:50.625Z,39.00
2018-03-11T06:31:18.816Z,36.87
2018-03-11T06:33:47.123Z,37.83
2018-03-11T06:36:15.293Z,32.10
2018-03-11T06:38:43.419Z,31.23
2018-03-11T06:41:11.545Z,27.73
2018-03-11T06:43:39.742Z,28.43
2018-03-11T06:46:07.860Z,21.73
2018-03-11T06:48:36.766Z,20.70
2018-03-11T06:51:05.037Z,20.67
2018-03-11T06:56:07.309Z,23.50
2018-03-11T06:58:36.217Z,23.97
2018-03-11T07:01:04.348Z,23.83
2018-03-11T07:03:32.489Z,21.23
2018-03-11T07:06:00.614Z,22.57
2018-03-11T07:08:28.804Z,23.00
2018-03-11T07:10:56.941Z,25.27
2018-03-11T07:13:25.175Z,22.20
2018-03-11T07:15:53.303Z,24.40
2018-03-11T07:18:21.463Z,25.77
2018-03-11T07:20:49.583Z,22.23
2018-03-11T07:23:17.733Z,23.70
2018-03-11T07:25:45.858Z,25.50
2018-03-11T07:28:13.989Z,23.77
2018-03-11T07:30:42.133Z,21.20
2018-03-11T07:33:11.036Z,21.70
2018-03-11T07:35:39.210Z,21.57
2018-03-11T07:38:07.341Z,23.17
2018-03-11T07:40:35.477Z,21.70
2018-03-11T07:43:03.598Z,19.37
2018-03-11T07:45:32.518Z,21.17
2018-03-11T07:48:00.649Z,19.10
2018-03-11T07:50:28.805Z,20.47
2018-03-11T07:52:56.954Z,17.70
2018-03-11T07:55:25.091Z,18.40
2018-03-11T07:57:53.596Z,18.30
2018-03-11T08:00:21.719Z,20.90
2018-03-11T08:02:50.091Z,19.33
2018-03-11T08:05:18.264Z,16.60
2018-03-11T08:07:46.533Z,16.90
2018-03-11T08:10:15.388Z,18.10
2018-03-11T08:12:45.459Z,13.67
2018-03-11T08:15:13.802Z,13.20
2018-03-11T08:17:41.942Z,14.30
2018-03-11T08:20:10.571Z,13.37
2018-03-11T08:22:38.683Z,14.93
2018-03-11T08:25:06.833Z,12.90
2018-03-11T08:27:35.729Z,14.30
2018-03-11T08:30:03.902Z,15.57
2018-03-11T08:32:32.033Z,13.40
2018-03-11T08:35:00.149Z,12.87
2018-03-11T08:37:28.655Z,13.30
2018-03-11T08:39:56.769Z,12.70
2018-03-11T08:42:24.912Z,12.00
2018-03-11T08:44:53.037Z,12.67
2018-03-11T08:47:21.176Z,10.53
2018-03-11T08:49:49.299Z,10.40
2018-03-11T08:52:17.443Z,10.30
2018-03-11T08:54:46.345Z,10.90
2018-03-11T08:57:14.476Z,10.60
2018-03-11T08:59:42.596Z,9.63
2018-03-11T09:02:10.965Z,9.87
2018-03-11T09:04:39.096Z,10.00
2018-03-11T09:07:07.238Z,10.50
2018-03-11T09:09:35.357Z,10.50
2018-03-11T09:12:04.288Z,12.00
2018-03-11T09:14:32.432Z,11.83
2018-03-11T09:17:01.410Z,12.70
2018-03-11T09:19:29.536Z,11.00
2018-03-11T09:21:58.122Z,10.13
2018-03-11T09:24:26.234Z,9.30
2018-03-11T09:26:54.362Z,9.20
2018-03-11T09:29:22.517Z,10.07
2018-03-11T09:31:50.675Z,10.03
2018-03-11T09:34:19.599Z,10.10
2018-03-11T09:36:47.759Z,9.70
2018-03-11T09:39:15.923Z,10.20
2018-03-11T09:41:44.058Z,10.60
2018-03-11T09:44:12.180Z,9.20
2018-03-11T09:46:40.315Z,10.53
2018-03-11T09:49:09.243Z,10.00
2018-03-11T09:51:37.376Z,8.77
2018-03-11T09:54:06.277Z,10.10
2018-03-11T09:56:34.628Z,8.20
2018-03-11T09:59:03.529Z,8.73
2018-03-11T10:01:31.654Z,10.10
2018-03-11T10:03:59.779Z,8.20
2018-03-11T10:06:27.938Z,8.57
2018-03-11T10:08:56.061Z,7.83
2018-03-11T10:11:24.486Z,7.53
2018-03-11T10:13:53.638Z,8.00
2018-03-11T10:16:21.821Z,6.53
2018-03-11T10:18:49.988Z,7.33
2018-03-11T10:21:18.114Z,7.30
2018-03-11T10:23:46.237Z,7.03
2018-03-11T10:26:14.396Z,5.37
2018-03-11T10:28:42.517Z,5.33
2018-03-11T10:31:10.745Z,5.43
2018-03-11T10:33:38.942Z,5.80
2018-03-11T10:36:07.071Z,5.10
2018-03-11T10:38:35.185Z,5.20
2018-03-11T10:41:03.361Z,5.67
2018-03-11T10:46:28.027Z,5.40
2018-03-11T10:48:56.156Z,5.40
2018-03-11T10:51:25.059Z,4.50
2018-03-11T10:53:53.194Z,5.50
2018-03-11T10:56:21.703Z,4.97
2018-03-11T10:58:50.579Z,4.93
2018-03-11T11:01:21.331Z,4.80
2018-03-11T11:03:52.230Z,4.70
2018-03-11T11:06:20.380Z,5.07
2018-03-11T11:08:48.500Z,4.33
2018-03-11T11:11:17.588Z,4.50
2018-03-11T11:13:45.706Z,4.90
2018-03-11T11:16:13.832Z,4.83
2018-03-11T11:18:42.735Z,4.33
2018-03-11T11:21:10.863Z,5.13
2018-03-11T11:23:38.999Z,4.53
2018-03-11T11:26:07.140Z,4.33
2018-03-11T11:28:35.278Z,4.60
2018-03-11T11:31:03.401Z,4.37
2018-03-11T11:33:31.541Z,4.77
2018-03-11T11:35:59.674Z,4.27
2018-03-11T11:38:27.836Z,3.93
2018-03-11T11:40:55.952Z,4.50
2018-03-11T11:43:24.129Z,4.13
2018-03-11T11:45:53.376Z,4.63
2018-03-11T11:48:21.486Z,4.60
2018-03-11T11:50:49.638Z,4.33
2018-03-11T11:53:17.761Z,3.70
2018-03-11T11:55:45.910Z,4.30
2018-03-11T11:58:14.831Z,4.23
2018-03-11T12:00:42.993Z,4.10
2018-03-11T12:03:11.105Z,3.13
2018-03-11T12:05:39.255Z,3.83
2018-03-11T12:08:07.371Z,4.30
2018-03-11T12:10:35.545Z,3.77
2018-03-11T12:13:03.672Z,3.80
2018-03-11T12:15:32.160Z,2.80
2018-03-11T12:18:00.276Z,3.80
2018-03-11T12:20:28.438Z,4.07
2018-03-11T12:22:56.557Z,3.70
2018-03-11T12:25:24.698Z,3.30
2018-03-11T12:27:52.813Z,4.00
2018-03-11T12:30:21.268Z,3.20
2018-03-11T12:32:49.395Z,3.50
2018-03-11T12:35:17.530Z,3.90
2018-03-11T12:37:45.681Z,3.53
2018-03-11T12:40:13.822Z,3.53
2018-03-11T12:42:42.714Z,4.00
2018-03-11T12:45:11.615Z,3.83
2018-03-11T12:47:40.507Z,3.73
2018-03-11T12:50:09.399Z,3.57
2018-03-11T12:52:37.585Z,3.03
2018-03-11T12:55:05.668Z,3.43
2018-03-11T12:57:33.809Z,3.30
2018-03-11T13:00:02.693Z,3.67
2018-03-11T13:02:31.599Z,3.33
2018-03-11T13:04:59.730Z,3.40
2018-03-11T13:07:27.868Z,2.83
2018-03-11T13:09:55.986Z,3.20
2018-03-11T13:12:24.885Z,2.67
2018-03-11T13:14:53.775Z,2.70
2018-03-11T13:17:22.679Z,2.77
2018-03-11T13:33:35.755Z,3.80
2018-03-11T13:36:03.875Z,3.07
2018-03-11T13:38:43.816Z,2.73
2018-03-11T13:41:11.941Z,3.80
2018-03-11T13:43:40.082Z,2.80
2018-03-11T13:46:19.967Z,8.47
2018-03-11T13:48:48.879Z,3.10
2018-03-11T13:51:28.750Z,2.60
2018-03-11T13:53:56.893Z,2.43
2018-03-11T13:56:25.782Z,2.33
2018-03-11T13:58:53.900Z,2.70
2018-03-11T14:01:22.039Z,3.07
2018-03-11T14:03:50.158Z,2.50
2018-03-11T14:06:18.298Z,2.73
2018-03-11T14:08:46.434Z,2.73
2018-03-11T14:11:15.329Z,2.77
2018-03-11T14:13:43.464Z,2.30
2018-03-11T14:16:11.614Z,2.37
2018-03-11T14:18:39.742Z,2.70
2018-03-11T14:21:07.887Z,2.57
2018-03-11T14:23:36.016Z,2.73
2018-03-11T14:26:04.156Z,2.63
2018-03-11T14:28:32.278Z,2.80
2018-03-11T14:31:00.427Z,2.50
2018-03-11T14:33:28.538Z,2.93
2018-03-11T14:35:56.681Z,2.43
2018-03-11T14:38:24.799Z,2.90
2018-03-11T14:40:52.962Z,2.80
2018-03-11T14:43:21.086Z,4.03
2018-03-11T14:45:49.224Z,2.93
2018-03-11T14:48:18.119Z,3.00
2018-03-11T14:50:46.304Z,3.20
2018-03-11T14:53:14.427Z,3.73
2018-03-11T14:55:42.571Z,3.40
2018-03-11T14:58:11.039Z,3.07
2018-03-11T15:00:39.180Z,4.20
2018-03-11T15:03:08.074Z,4.17
2018-03-11T15:05:36.989Z,4.23
2018-03-11T15:08:05.114Z,4.30
2018-03-11T15:10:34.044Z,3.67
2018-03-11T15:13:02.164Z,3.63
2018-03-11T15:15:30.293Z,5.03
2018-03-11T15:17:58.434Z,4.30
2018-03-11T15:20:28.029Z,3.27
2018-03-11T15:22:56.935Z,2.67
2018-03-11T15:25:25.077Z,4.00
2018-03-11T15:27:53.211Z,2.77
2018-03-11T15:30:21.352Z,3.10
2018-03-11T15:32:49.486Z,2.90
2018-03-11T15:35:17.619Z,2.73
2018-03-11T15:37:45.802Z,2.97
2018-03-11T15:40:14.642Z,3.10
2018-03-11T15:42:43.546Z,2.87
2018-03-11T15:45:11.676Z,3.00
2018-03-11T15:47:39.808Z,3.57
2018-03-11T15:50:07.947Z,3.50
2018-03-11T15:52:37.209Z,3.13
2018-03-11T15:55:05.329Z,3.90
2018-03-11T15:57:34.210Z,3.37
2018-03-11T16:00:02.359Z,4.17
2018-03-11T16:02:30.482Z,3.10
2018-03-11T16:04:58.626Z,3.60
2018-03-11T16:07:26.756Z,4.13
2018-03-11T16:09:54.894Z,3.07
2018-03-11T16:12:23.015Z,3.03
2018-03-11T16:14:51.166Z,3.30
2018-03-11T16:17:19.315Z,2.90
2018-03-11T16:19:47.451Z,3.47
2018-03-11T16:22:16.336Z,3.40
2018-03-11T16:24:45.237Z,2.83
2018-03-11T16:27:13.360Z,2.90
2018-03-11T16:29:41.557Z,3.10
2018-03-11T16:32:09.690Z,2.50
2018-03-11T16:34:37.857Z,3.03
2018-03-11T16:37:05.974Z,2.87
2018-03-11T16:39:34.089Z,3.27
2018-03-11T16:42:02.250Z,4.17
2018-03-11T16:44:30.382Z,3.63
2018-03-11T16:46:58.522Z,3.70
2018-03-11T16:49:26.647Z,4.50
2018-03-11T16:51:54.789Z,4.10
2018-03-11T16:54:22.909Z,4.07
2018-03-11T16:56:51.084Z,4.00
2018-03-11T16:59:19.946Z,6.33
2018-03-11T17:01:48.856Z,7.10
2018-03-11T17:04:16.995Z,8.90
2018-03-11T17:06:45.896Z,7.90
2018-03-11T17:09:14.780Z,7.30
2018-03-11T17:11:43.689Z,4.40
2018-03-11T17:14:11.814Z,4.70
2018-03-11T17:16:39.956Z,5.30
2018-03-11T17:19:08.110Z,10.63
2018-03-11T17:21:36.955Z,13.37
2018-03-11T17:24:05.076Z,5.03
2018-03-11T17:26:33.227Z,5.47
2018-03-11T17:29:01.366Z,4.80
2018-03-11T17:31:29.497Z,4.00
2018-03-11T17:33:57.647Z,9.20
2018-03-11T17:36:25.779Z,8.80
2018-03-11T17:38:53.930Z,8.70
2018-03-11T17:41:22.064Z,7.30
2018-03-11T17:43:50.194Z,6.77
2018-03-11T17:46:18.325Z,6.70
2018-03-11T17:48:46.455Z,7.60
2018-03-11T17:51:15.456Z,9.80
2018-03-11T17:53:43.603Z,10.83
2018-03-11T17:56:11.734Z,13.13
2018-03-11T17:58:39.884Z,17.87
2018-03-11T18:01:08.022Z,18.37
2018-03-11T18:03:36.172Z,15.30
2018-03-11T18:06:04.323Z,12.43
2018-03-11T18:08:32.480Z,12.20
2018-03-11T18:11:00.616Z,7.90
2018-03-11T18:13:28.758Z,9.27
2018-03-11T18:15:56.894Z,13.73
2018-03-11T18:18:25.023Z,14.73
2018-03-11T18:20:53.200Z,10.70
2018-03-11T18:23:22.107Z,10.70
2018-03-11T18:25:51.040Z,11.20
2018-03-11T18:28:19.178Z,13.20
2018-03-11T18:30:47.326Z,13.37
2018-03-11T18:33:15.482Z,7.77
2018-03-11T18:35:43.623Z,7.60
2018-03-11T18:38:11.758Z,10.70
2018-03-11T18:40:39.965Z,8.30
2018-03-11T18:43:08.098Z,6.10
2018-03-11T18:45:37.009Z,6.63
2018-03-11T18:48:05.126Z,7.73
2018-03-11T18:50:33.276Z,9.70
2018-03-11T18:53:02.181Z,10.77
2018-03-11T18:55:30.314Z,8.50
2018-03-11T18:57:58.433Z,7.00
2018-03-11T19:00:27.009Z,7.57
2018-03-11T19:02:55.133Z,9.07
2018-03-11T19:05:23.644Z,11.77
2018-03-11T19:07:51.774Z,14.57
2018-03-11T19:10:19.946Z,11.60
2018-03-11T19:12:48.102Z,12.43
2018-03-11T19:15:16.251Z,15.73
2018-03-11T19:17:44.375Z,31.17
2018-03-11T19:20:12.530Z,29.37
2018-03-11T19:22:40.713Z,37.53
2018-03-11T19:25:14.399Z,39.40
2018-03-11T19:27:45.280Z,29.70
2018-03-11T19:30:15.053Z,19.73
2018-03-11T19:32:44.011Z,8.90
2018-03-11T19:35:13.984Z,7.90
2018-03-11T19:37:43.048Z,7.37
2018-03-11T19:40:13.236Z,12.10
2018-03-11T19:42:44.011Z,16.20
2018-03-11T19:45:18.938Z,15.07
2018-03-11T19:47:51.478Z,14.13
2018-03-11T19:50:22.746Z,12.10
2018-03-11T19:52:53.173Z,12.10
2018-03-11T19:55:22.486Z,8.27
2018-03-11T19:57:56.137Z,8.27
2018-03-11T20:00:26.203Z,9.40
2018-03-11T20:02:55.533Z,12.30
2018-03-11T20:05:25.468Z,17.20
2018-03-11T20:07:59.749Z,9.20
2018-03-11T20:10:34.090Z,7.67
2018-03-11T20:13:06.391Z,10.50
2018-03-11T20:15:35.705Z,6.57
2018-03-11T20:18:07.728Z,8.40
2018-03-11T20:20:40.703Z,6.83
2018-03-11T20:23:09.899Z,10.37
2018-03-11T20:25:38.045Z,10.37
2018-03-11T20:28:06.286Z,14.27
2018-03-11T20:30:35.667Z,13.90
2018-03-11T20:33:03.795Z,11.77
2018-03-11T20:35:31.951Z,19.33
2018-03-11T20:38:00.093Z,17.53
2018-03-11T20:40:29.003Z,15.50
2018-03-11T20:42:57.150Z,10.93
2018-03-11T20:45:26.074Z,10.17
2018-03-11T20:47:54.200Z,9.20
2018-03-11T20:50:22.335Z,9.23
2018-03-11T20:52:50.471Z,9.13
2018-03-11T20:55:19.371Z,8.90
2018-03-11T20:57:47.514Z,11.23
2018-03-11T21:00:15.936Z,10.80
2018-03-11T21:02:44.092Z,10.10
2018-03-11T21:05:12.224Z,45.27
2018-03-11T21:07:40.370Z,12.20
2018-03-11T21:10:08.532Z,15.37
2018-03-11T21:12:36.663Z,14.80
2018-03-11T21:15:05.566Z,21.07
2018-03-11T21:17:33.713Z,13.50
2018-03-11T21:20:02.614Z,12.40
2018-03-11T21:22:31.524Z,12.17
2018-03-11T21:24:59.664Z,11.00
2018-03-11T21:27:27.823Z,10.57
2018-03-11T21:29:55.947Z,9.87
2018-03-11T21:32:24.086Z,8.67
2018-03-11T21:34:52.987Z,10.30
2018-03-11T21:37:21.135Z,10.70
2018-03-11T21:39:49.262Z,10.47
2018-03-11T21:42:17.403Z,9.90
2018-03-11T21:44:46.294Z,8.57
2018-03-11T21:47:14.460Z,8.13
2018-03-11T21:49:43.375Z,9.03
2018-03-11T21:52:11.511Z,9.13
2018-03-11T21:54:40.392Z,9.07
2018-03-11T21:57:08.511Z,8.70
2018-03-11T21:59:36.663Z,8.73
2018-03-11T22:02:04.798Z,12.90
2018-03-11T22:04:32.931Z,8.00
2018-03-11T22:07:01.051Z,14.03
2018-03-11T22:09:29.963Z,8.27
2018-03-11T22:11:58.082Z,7.73
2018-03-11T22:14:26.218Z,7.70
2018-03-11T22:16:54.342Z,10.27
2018-03-11T22:19:22.490Z,7.30
2018-03-11T22:21:51.469Z,8.20
2018-03-11T22:24:19.649Z,7.60
2018-03-11T22:26:47.785Z,6.73
2018-03-11T22:29:16.678Z,7.57
2018-03-11T22:31:44.798Z,6.63
2018-03-11T22:34:12.952Z,7.00
2018-03-11T22:36:41.079Z,6.40
2018-03-11T22:39:10.048Z,5.97
2018-03-11T22:41:38.218Z,6.30
2018-03-11T22:44:06.366Z,6.40
2018-03-11T22:46:34.495Z,5.93
2018-03-11T22:49:02.662Z,5.33
2018-03-11T22:51:31.577Z,6.63
2018-03-11T22:53:59.719Z,5.90
2018-03-11T22:56:28.622Z,6.37
2018-03-11T22:58:56.833Z,6.00
2018-03-11T23:01:24.951Z,6.13
2018-03-11T23:03:53.840Z,5.33
2018-03-11T23:06:22.746Z,5.80
2018-03-11T23:08:50.896Z,5.80
2018-03-11T23:11:19.016Z,6.67
2018-03-11T23:13:47.142Z,6.13
2018-03-11T23:16:16.068Z,7.20
2018-03-11T23:18:55.978Z,7.17
2018-03-11T23:21:24.904Z,6.73
2018-03-11T23:23:53.011Z,7.07
2018-03-11T23:26:21.157Z,7.00
2018-03-11T23:28:49.310Z,8.27
2018-03-11T23:31:17.598Z,11.93
2018-03-11T23:33:45.735Z,11.30
2018-03-11T23:36:14.622Z,6.70
2018-03-11T23:38:43.514Z,5.00
2018-03-11T23:41:12.428Z,4.80
2018-03-11T23:43:40.547Z,6.23
2018-03-11T23:46:08.683Z,5.80
2018-03-11T23:48:36.802Z,5.33
2018-03-11T23:51:04.956Z,5.33
2018-03-11T23:53:33.092Z,5.07
2018-03-11T23:56:01.222Z,5.60
2018-03-11T23:58:30.133Z,6.07
